createdAt,value
2022-09-05T00:02:06.443Z,6.90
2022-09-05T00:04:46.780Z,5.87
2022-09-05T00:07:57.850Z,6.20
2022-09-05T00:11:39.694Z,6.70
2022-09-05T00:13:46.339Z,6.03
2022-09-05T00:16:53.928Z,6.13
2022-09-05T00:23:48.470Z,5.93
2022-09-05T00:24:31.893Z,6.50
2022-09-05T00:25:56.445Z,6.90
2022-09-05T00:28:36.857Z,7.40
2022-09-05T00:31:54.528Z,6.53
2022-09-05T00:34:47.120Z,6.33
2022-09-05T00:37:27.805Z,8.93
2022-09-05T00:40:17.481Z,5.50
2022-09-05T00:42:49.244Z,7.23
2022-09-05T00:45:30.657Z,6.70
2022-09-05T00:48:11.145Z,9.70
2022-09-05T00:50:49.843Z,5.60
2022-09-05T00:53:44.576Z,5.40
2022-09-05T00:56:20.036Z,5.53
2022-09-05T00:59:03.885Z,5.43
2022-09-05T01:01:47.728Z,5.30
2022-09-05T01:04:28.028Z,6.00
2022-09-05T01:07:18.952Z,5.53
2022-09-05T01:10:23.726Z,5.40
2022-09-05T01:13:27.641Z,5.93
2022-09-05T01:16:21.419Z,6.93
2022-09-05T01:19:05.378Z,9.90
2022-09-05T01:21:49.278Z,5.70
2022-09-05T01:24:45.553Z,5.37
2022-09-05T01:27:54.651Z,6.17
2022-09-05T01:30:37.628Z,5.73
2022-09-05T01:33:25.575Z,5.07
2022-09-05T01:36:04.140Z,5.40
2022-09-05T01:40:10.503Z,5.30
2022-09-05T01:42:15.817Z,5.80
2022-09-05T01:45:07.234Z,5.53
2022-09-05T01:48:25.157Z,20.70
2022-09-05T01:50:58.178Z,5.97
2022-09-05T01:53:39.998Z,5.37
2022-09-05T01:56:15.515Z,5.80
2022-09-05T01:59:05.507Z,5.50
2022-09-05T02:02:03.254Z,5.70
2022-09-05T02:04:50.206Z,6.07
2022-09-05T02:07:31.030Z,7.53
2022-09-05T02:10:33.469Z,7.87
2022-09-05T02:13:18.857Z,7.30
2022-09-05T02:16:08.285Z,5.00
2022-09-05T02:19:06.130Z,5.80
2022-09-05T02:21:57.295Z,7.83
2022-09-05T02:24:33.142Z,5.50
2022-09-05T02:27:02.490Z,5.60
2022-09-05T02:30:05.923Z,5.93
2022-09-05T02:33:04.813Z,6.00
2022-09-05T02:35:33.617Z,6.03
2022-09-05T02:42:30.464Z,6.27
2022-09-05T02:45:09.111Z,6.37
2022-09-05T02:45:11.902Z,5.57
2022-09-05T02:47:12.982Z,5.40
2022-09-05T02:52:29.181Z,5.60
2022-09-05T02:57:33.866Z,7.23
2022-09-05T02:57:39.934Z,6.30
2022-09-05T02:59:10.048Z,6.73
2022-09-05T03:02:03.377Z,6.77
2022-09-05T03:05:07.656Z,5.57
2022-09-05T03:07:58.936Z,5.57
2022-09-05T03:10:55.143Z,5.73
2022-09-05T03:13:35.431Z,7.70
2022-09-05T03:16:23.787Z,7.43
2022-09-05T03:19:26.229Z,5.30
2022-09-05T03:22:11.083Z,5.90
2022-09-05T03:24:59.313Z,6.57
2022-09-05T03:27:35.888Z,6.70
2022-09-05T03:30:22.056Z,6.57
2022-09-05T03:33:09.360Z,6.50
2022-09-05T03:36:13.579Z,5.90
2022-09-05T03:38:49.480Z,7.60
2022-09-05T03:41:54.205Z,5.70
2022-09-05T03:45:10.797Z,6.33
2022-09-05T03:48:27.877Z,5.80
2022-09-05T03:57:13.197Z,6.03
2022-09-05T03:57:18.763Z,7.97
2022-09-05T03:57:38.696Z,5.97
2022-09-05T04:00:27.445Z,6.50
2022-09-05T04:08:10.061Z,6.00
2022-09-05T04:08:24.252Z,6.20
2022-09-05T04:09:50.079Z,5.50
2022-09-05T04:12:32.393Z,5.37
2022-09-05T04:15:09.334Z,5.77
2022-09-05T04:17:53.943Z,7.80
2022-09-05T04:20:40.668Z,5.80
2022-09-05T04:23:34.120Z,9.10
2022-09-05T04:26:12.134Z,9.90
2022-09-05T04:28:57.306Z,8.33
2022-09-05T04:31:38.945Z,7.97
2022-09-05T04:34:16.864Z,6.83
2022-09-05T04:36:45.733Z,7.40
2022-09-05T04:39:18.312Z,10.53
2022-09-05T04:42:08.849Z,7.60
2022-09-05T04:44:55.814Z,10.07
2022-09-05T04:47:30.781Z,11.23
2022-09-05T04:50:06.788Z,8.50
2022-09-05T04:53:05.291Z,10.90
2022-09-05T04:55:40.685Z,10.93
2022-09-05T04:58:43.670Z,11.47
2022-09-05T05:06:09.092Z,7.50
2022-09-05T05:06:14.655Z,14.30
2022-09-05T05:07:28.475Z,9.50
2022-09-05T05:10:31.746Z,8.87
2022-09-05T05:18:01.553Z,8.50
2022-09-05T05:18:07.791Z,8.20
2022-09-05T05:19:18.681Z,7.30
2022-09-05T05:21:54.193Z,6.50
2022-09-05T05:24:35.233Z,11.57
2022-09-05T05:27:43.769Z,6.93
2022-09-05T05:30:11.820Z,7.37
2022-09-05T05:32:48.207Z,7.00
2022-09-05T05:35:30.385Z,8.10
2022-09-05T05:38:31.040Z,6.83
2022-09-05T05:41:20.571Z,7.40
2022-09-05T05:43:49.507Z,7.17
2022-09-05T05:46:28.402Z,6.07
2022-09-05T05:49:14.803Z,7.20
2022-09-05T05:52:02.414Z,6.40
2022-09-05T05:54:46.333Z,6.27
2022-09-05T05:57:34.681Z,8.23
2022-09-05T06:00:05.233Z,9.07
2022-09-05T06:03:25.099Z,7.33
2022-09-05T06:06:07.703Z,6.20
2022-09-05T06:13:24.210Z,7.57
2022-09-05T06:15:07.079Z,6.20
2022-09-05T06:15:26.490Z,8.17
2022-09-05T06:18:09.103Z,7.67
2022-09-05T06:22:05.703Z,9.50
2022-09-05T06:24:24.157Z,7.07
2022-09-05T06:27:06.489Z,7.23
2022-09-05T06:30:10.865Z,6.70
2022-09-05T06:32:37.427Z,11.00
2022-09-05T06:35:28.621Z,6.23
2022-09-05T06:38:16.227Z,11.37
2022-09-05T06:41:07.427Z,9.53
2022-09-05T06:44:19.795Z,10.70
2022-09-05T06:47:24.007Z,6.70
2022-09-05T06:50:26.696Z,9.50
2022-09-05T06:53:19.894Z,7.00
2022-09-05T06:55:58.423Z,6.30
2022-09-05T06:58:52.893Z,7.00
2022-09-05T07:01:56.574Z,7.47
2022-09-05T07:04:51.446Z,5.47
2022-09-05T07:07:27.639Z,6.57
2022-09-05T07:10:00.343Z,6.23
2022-09-05T07:12:30.193Z,8.87
2022-09-05T07:15:27.510Z,11.03
2022-09-05T07:18:13.607Z,5.40
2022-09-05T07:21:16.296Z,4.60
2022-09-05T07:24:09.335Z,5.03
2022-09-05T07:26:54.786Z,5.50
2022-09-05T07:29:30.924Z,5.80
2022-09-05T07:31:59.692Z,5.17
2022-09-05T07:34:37.712Z,6.17
2022-09-05T07:37:15.512Z,7.87
2022-09-05T07:40:02.409Z,12.57
2022-09-05T07:43:08.308Z,4.73
2022-09-05T07:45:52.312Z,5.07
2022-09-05T07:48:34.531Z,6.07
2022-09-05T07:56:47.797Z,4.17
2022-09-05T07:56:58.769Z,5.20
2022-09-05T07:59:42.958Z,11.13
2022-09-05T08:02:12.473Z,6.30
2022-09-05T08:04:42.751Z,5.03
2022-09-05T08:07:46.405Z,5.27
2022-09-05T08:10:16.946Z,4.90
2022-09-05T08:13:23.573Z,5.07
2022-09-05T08:16:13.050Z,4.73
2022-09-05T08:18:37.428Z,4.00
2022-09-05T08:21:11.568Z,5.00
2022-09-05T08:23:43.962Z,6.33
2022-09-05T08:26:14.537Z,8.10
2022-09-05T08:28:55.425Z,4.57
2022-09-05T08:31:46.756Z,9.73
2022-09-05T08:34:18.369Z,8.77
2022-09-05T08:36:52.891Z,5.00
2022-09-05T08:39:24.033Z,4.47
2022-09-05T08:42:14.887Z,5.10
2022-09-05T08:46:47.232Z,9.60
2022-09-05T08:48:24.514Z,6.70
2022-09-05T08:51:25.869Z,7.20
2022-09-05T08:54:30.068Z,9.43
2022-09-05T08:57:09.970Z,9.40
2022-09-05T09:00:10.317Z,4.97
2022-09-05T09:03:05.058Z,6.03
2022-09-05T09:05:58.079Z,8.03
2022-09-05T09:08:42.781Z,6.10
2022-09-05T09:11:28.353Z,5.53
2022-09-05T09:14:23.395Z,9.70
2022-09-05T09:17:00.560Z,5.40
2022-09-05T09:19:48.992Z,4.60
2022-09-05T09:22:33.523Z,11.47
2022-09-05T09:25:15.028Z,3.77
2022-09-05T09:28:43.687Z,4.40
2022-09-05T09:31:12.730Z,5.13
2022-09-05T09:33:50.291Z,5.67
2022-09-05T09:36:53.149Z,8.37
2022-09-05T09:39:58.431Z,6.70
2022-09-05T09:42:46.053Z,10.33
2022-09-05T09:45:53.139Z,6.93
2022-09-05T09:48:38.091Z,6.23
2022-09-05T09:51:12.285Z,12.80
2022-09-05T09:53:39.219Z,7.47
2022-09-05T09:56:34.262Z,4.20
2022-09-05T09:59:19.662Z,7.07
2022-09-05T10:04:30.951Z,5.90
2022-09-05T10:10:34.509Z,4.00
2022-09-05T10:10:45.619Z,4.80
2022-09-05T10:15:32.624Z,11.10
2022-09-05T10:18:29.049Z,7.93
2022-09-05T10:21:16.383Z,4.50
2022-09-05T10:24:24.293Z,3.40
2022-09-05T10:27:07.449Z,5.87
2022-09-05T10:30:11.909Z,2.57
2022-09-05T10:35:04.510Z,6.27
2022-09-05T10:35:37.486Z,3.00
2022-09-05T10:38:11.611Z,4.10
2022-09-05T10:41:07.956Z,2.27
2022-09-05T10:43:31.489Z,2.53
2022-09-05T10:45:58.780Z,2.20
2022-09-05T10:48:44.793Z,3.40
2022-09-05T10:51:27.182Z,2.20
2022-09-05T10:54:10.098Z,7.80
2022-09-05T10:56:49.998Z,77.97
2022-09-05T11:01:17.811Z,302.30
2022-09-05T11:02:38.555Z,303.43
2022-09-05T11:05:26.252Z,497.00
2022-09-05T11:08:07.819Z,579.87
2022-09-05T11:10:44.089Z,460.73
2022-09-05T11:13:25.411Z,283.77
2022-09-05T11:16:09.240Z,219.10
2022-09-05T11:18:54.929Z,109.93
2022-09-05T11:21:37.941Z,86.60
2022-09-05T11:24:42.896Z,56.27
2022-09-05T11:27:29.535Z,45.27
2022-09-05T11:30:07.888Z,27.77
2022-09-05T11:39:46.070Z,22.87
2022-09-05T11:39:54.717Z,11.50
2022-09-05T11:39:57.509Z,22.03
2022-09-05T11:42:26.751Z,9.73
2022-09-05T11:45:15.755Z,11.07
2022-09-05T11:48:01.056Z,8.70
2022-09-05T11:50:43.558Z,6.80
2022-09-05T11:53:47.498Z,4.57
2022-09-05T11:56:42.622Z,6.83
2022-09-05T11:59:48.960Z,4.60
2022-09-05T12:03:56.911Z,4.53
2022-09-05T12:06:49.908Z,3.80
2022-09-05T12:09:33.708Z,3.73
2022-09-05T12:12:38.676Z,3.40
2022-09-05T12:15:34.291Z,3.20
2022-09-05T12:18:30.994Z,3.37
2022-09-05T12:21:25.291Z,3.80
2022-09-05T12:25:15.289Z,2.67
2022-09-05T12:27:43.214Z,2.53
2022-09-05T12:29:59.310Z,2.63
2022-09-05T12:33:32.694Z,3.47
2022-09-05T12:36:12.350Z,2.20
2022-09-05T12:41:42.465Z,2.70
2022-09-05T12:41:43.358Z,2.33
2022-09-05T12:45:08.971Z,2.20
2022-09-05T12:47:57.962Z,2.07
2022-09-05T12:50:43.897Z,3.70
2022-09-05T12:53:18.480Z,1.80
2022-09-05T12:56:52.905Z,2.07
2022-09-05T13:02:46.688Z,2.00
2022-09-05T13:03:07.650Z,2.33
2022-09-05T13:05:01.986Z,7.60
2022-09-05T13:07:42.608Z,3.23
2022-09-05T13:11:19.935Z,4.23
2022-09-05T13:14:56.825Z,3.67
2022-09-05T13:16:03.357Z,1.83
2022-09-05T13:18:39.093Z,2.03
2022-09-05T13:21:16.477Z,3.40
2022-09-05T13:24:14.320Z,2.27
2022-09-05T13:26:54.586Z,2.40
2022-09-05T13:29:52.538Z,3.73
2022-09-05T13:37:59.370Z,3.10
2022-09-05T13:38:10.166Z,3.37
2022-09-05T13:38:47.360Z,2.80
2022-09-05T13:41:27.587Z,2.10
2022-09-05T13:44:25.619Z,3.10
2022-09-05T13:47:28.929Z,5.47
2022-09-05T13:50:05.609Z,6.97
2022-09-05T13:52:46.194Z,2.40
2022-09-05T13:55:22.972Z,1.80
2022-09-05T13:58:07.074Z,3.10
2022-09-05T14:00:38.564Z,2.03
2022-09-05T14:06:45.422Z,1.67
2022-09-05T14:09:51.524Z,2.20
2022-09-05T14:13:04.445Z,1.90
2022-09-05T14:15:56.250Z,2.50
2022-09-05T14:19:09.265Z,1.87
2022-09-05T14:21:39.639Z,1.70
2022-09-05T14:24:27.368Z,2.27
2022-09-05T14:27:11.106Z,2.00
2022-09-05T14:29:55.482Z,1.80
2022-09-05T14:37:42.238Z,1.83
2022-09-05T14:37:42.763Z,2.30
2022-09-05T14:38:23.619Z,3.03
2022-09-05T14:41:09.418Z,3.30
2022-09-05T14:44:07.727Z,14.63
2022-09-05T14:46:38.774Z,2.70
2022-09-05T14:49:15.557Z,4.10
2022-09-05T14:51:47.573Z,2.03
2022-09-05T15:02:38.210Z,2.40
2022-09-05T15:02:42.810Z,1.80
2022-09-05T15:03:02.502Z,1.70
2022-09-05T15:05:30.793Z,2.53
2022-09-05T15:08:16.328Z,2.30
2022-09-05T15:12:18.373Z,2.00
2022-09-05T15:13:56.987Z,1.77
2022-09-05T15:16:25.191Z,1.73
2022-09-05T15:18:53.177Z,2.03
2022-09-05T15:21:39.748Z,2.43
2022-09-05T15:24:23.728Z,1.90
2022-09-05T15:26:56.832Z,3.17
2022-09-05T15:29:36.949Z,4.47
2022-09-05T15:32:31.935Z,2.03
2022-09-05T15:35:00.211Z,2.03
2022-09-05T15:37:36.571Z,2.40
2022-09-05T15:40:22.392Z,2.60
2022-09-05T15:42:50.825Z,2.30
2022-09-05T15:45:24.717Z,2.00
2022-09-05T15:48:21.270Z,4.93
2022-09-05T15:50:51.489Z,4.70
2022-09-05T15:53:28.898Z,1.87
2022-09-05T15:56:09.149Z,2.27
2022-09-05T15:58:53.729Z,2.07
2022-09-05T16:01:38.430Z,2.17
2022-09-05T16:08:10.579Z,2.90
2022-09-05T16:10:29.587Z,3.17
2022-09-05T16:10:42.375Z,2.00
2022-09-05T16:12:46.720Z,2.23
2022-09-05T16:18:53.066Z,2.40
2022-09-05T16:23:16.013Z,2.27
2022-09-05T16:23:32.670Z,3.13
2022-09-05T16:24:05.689Z,2.30
2022-09-05T16:26:46.577Z,1.90
2022-09-05T16:29:26.402Z,3.10
2022-09-05T16:31:59.294Z,2.17
2022-09-05T16:34:32.185Z,2.00
2022-09-05T16:37:15.432Z,3.77
2022-09-05T16:39:51.657Z,2.73
2022-09-05T16:42:46.727Z,1.63
2022-09-05T16:45:23.491Z,2.00
2022-09-05T16:48:27.683Z,3.77
2022-09-05T16:51:35.646Z,1.80
2022-09-05T16:54:11.704Z,3.10
2022-09-05T16:57:06.602Z,3.70
2022-09-05T16:59:36.367Z,2.77
2022-09-05T17:02:30.646Z,2.50
2022-09-05T17:05:29.446Z,3.30
2022-09-05T17:08:23.608Z,3.60
2022-09-05T17:11:03.528Z,4.10
2022-09-05T17:13:53.374Z,3.93
2022-09-05T17:16:55.257Z,4.83
2022-09-05T17:19:32.410Z,3.87
2022-09-05T17:25:06.849Z,2.27
2022-09-05T17:29:36.098Z,4.07
2022-09-05T17:29:40.005Z,2.20
2022-09-05T17:31:55.014Z,2.93
2022-09-05T17:34:28.667Z,1.67
2022-09-05T17:37:36.278Z,1.97
2022-09-05T17:40:47.598Z,7.33
2022-09-05T17:43:30.976Z,2.97
2022-09-05T17:46:28.495Z,3.03
2022-09-05T17:49:17.779Z,4.90
2022-09-05T17:51:51.023Z,2.83
2022-09-05T17:54:27.195Z,2.50
2022-09-05T17:56:54.252Z,3.63
2022-09-05T17:59:21.187Z,3.73
2022-09-05T18:02:03.153Z,2.83
2022-09-05T18:04:50.933Z,2.37
2022-09-05T18:07:26.691Z,2.70
2022-09-05T18:10:12.024Z,2.43
2022-09-05T18:13:13.713Z,3.60
2022-09-05T18:15:31.776Z,2.00
2022-09-05T18:18:05.159Z,4.47
2022-09-05T18:20:34.484Z,4.93
2022-09-05T18:23:18.098Z,2.60
2022-09-05T18:25:58.774Z,2.40
2022-09-05T18:28:48.873Z,2.70
2022-09-05T18:31:41.972Z,2.50
2022-09-05T18:34:15.368Z,10.57
2022-09-05T18:36:44.486Z,3.23
2022-09-05T18:39:24.551Z,3.33
2022-09-05T18:42:26.032Z,4.50
2022-09-05T18:44:59.637Z,4.60
2022-09-05T18:47:38.740Z,4.40
2022-09-05T18:50:26.185Z,4.37
2022-09-05T18:53:10.393Z,6.50
2022-09-05T18:56:13.445Z,4.20
2022-09-05T18:58:53.177Z,4.17
2022-09-05T19:01:55.650Z,10.30
2022-09-05T19:04:40.591Z,3.40
2022-09-05T19:07:18.500Z,2.30
2022-09-05T19:10:36.075Z,2.50
2022-09-05T19:13:11.313Z,2.87
2022-09-05T19:16:03.661Z,3.83
2022-09-05T19:19:11.310Z,2.73
2022-09-05T19:23:06.621Z,2.80
2022-09-05T19:24:47.232Z,2.80
2022-09-05T19:31:31.697Z,3.13
2022-09-05T19:37:09.042Z,5.87
2022-09-05T19:37:15.602Z,4.40
2022-09-05T19:37:24.452Z,2.30
2022-09-05T19:38:39.682Z,3.77
2022-09-05T19:47:28.368Z,5.27
2022-09-05T19:47:34.262Z,4.43
2022-09-05T19:47:37.379Z,4.43
2022-09-05T19:50:07.695Z,5.87
2022-09-05T19:52:35.774Z,4.23
2022-09-05T19:55:21.873Z,5.83
2022-09-05T19:57:55.593Z,5.50
2022-09-05T20:00:38.925Z,4.50
2022-09-05T20:03:05.616Z,4.10
2022-09-05T20:05:32.861Z,6.30
2022-09-05T20:08:00.132Z,4.60
2022-09-05T20:10:31.196Z,5.03
2022-09-05T20:12:58.873Z,4.37
2022-09-05T20:15:35.781Z,5.10
2022-09-05T20:18:23.917Z,6.10
2022-09-05T20:21:10.303Z,3.93
2022-09-05T20:23:41.100Z,5.30
2022-09-05T20:26:09.521Z,6.73
2022-09-05T20:28:38.813Z,6.10
2022-09-05T20:31:15.830Z,4.33
2022-09-05T20:33:51.969Z,6.70
2022-09-05T20:43:10.236Z,6.73
2022-09-05T20:43:18.015Z,5.57
2022-09-05T20:43:28.335Z,4.00
2022-09-05T20:45:37.213Z,7.33
2022-09-05T20:54:08.100Z,7.17
2022-09-05T20:54:12.674Z,4.83
2022-09-05T20:54:20.331Z,6.10
2022-09-05T20:56:32.355Z,6.20
2022-09-05T20:59:00.391Z,6.07
2022-09-05T21:01:27.429Z,6.60
2022-09-05T21:04:01.245Z,7.63
2022-09-05T21:06:33.826Z,4.80
2022-09-05T21:09:24.621Z,5.93
2022-09-05T21:11:53.011Z,5.20
2022-09-05T21:14:21.847Z,6.37
2022-09-05T21:17:01.165Z,7.03
2022-09-05T21:19:36.787Z,5.90
2022-09-05T21:22:03.790Z,6.73
2022-09-05T21:24:31.101Z,3.63
2022-09-05T21:27:17.360Z,5.07
2022-09-05T21:29:44.724Z,3.93
2022-09-05T21:32:16.028Z,5.40
2022-09-05T21:34:52.029Z,9.43
2022-09-05T21:37:20.240Z,5.57
2022-09-05T21:39:59.822Z,3.70
2022-09-05T21:43:52.995Z,5.60
2022-09-05T21:47:50.094Z,5.67
2022-09-05T21:48:15.338Z,5.83
2022-09-05T21:50:51.173Z,4.70
2022-09-05T21:56:29.706Z,5.70
2022-09-05T21:59:16.894Z,3.47
2022-09-05T21:59:18.514Z,3.00
2022-09-05T22:01:54.090Z,3.50
2022-09-05T22:04:21.618Z,9.00
2022-09-05T22:06:48.496Z,3.97
2022-09-05T22:09:19.850Z,4.03
2022-09-05T22:11:50.285Z,3.60
2022-09-05T22:14:19.207Z,3.30
2022-09-05T22:16:47.439Z,4.57
2022-09-05T22:19:22.560Z,6.00
2022-09-05T22:21:52.431Z,3.63
2022-09-05T22:24:19.392Z,4.43
2022-09-05T22:27:10.869Z,4.83
2022-09-05T22:29:39.673Z,3.50
2022-09-05T22:32:07.009Z,3.80
2022-09-05T22:34:33.958Z,3.57
2022-09-05T22:37:00.515Z,3.83
2022-09-05T22:39:37.384Z,3.20
2022-09-05T22:42:10.313Z,4.07
2022-09-05T22:44:39.138Z,2.90
2022-09-05T22:47:09.955Z,3.30
2022-09-05T22:49:36.870Z,4.43
2022-09-05T22:52:08.060Z,3.20
2022-09-05T22:54:35.433Z,4.17
2022-09-05T22:57:03.019Z,4.27
2022-09-05T22:59:29.652Z,3.20
2022-09-05T23:01:56.405Z,6.50
2022-09-05T23:04:23.401Z,3.27
2022-09-05T23:06:50.059Z,4.03
2022-09-05T23:09:16.666Z,3.70
2022-09-05T23:11:43.282Z,3.23
2022-09-05T23:14:09.881Z,3.00
2022-09-05T23:16:36.503Z,3.50
2022-09-05T23:19:03.413Z,3.97
2022-09-05T23:21:30.017Z,3.83
2022-09-05T23:23:56.610Z,5.60
2022-09-05T23:26:23.439Z,3.60
2022-09-05T23:28:50.048Z,5.57
2022-09-05T23:31:16.729Z,5.63
2022-09-05T23:33:43.379Z,3.27
2022-09-05T23:36:13.606Z,2.80
2022-09-05T23:38:43.959Z,3.50
2022-09-05T23:41:12.947Z,4.90
2022-09-05T23:43:39.597Z,4.03
2022-09-05T23:46:06.880Z,3.17
2022-09-05T23:48:33.950Z,2.47
2022-09-05T23:51:11.482Z,3.00
2022-09-05T23:53:38.454Z,4.93
2022-09-05T23:56:07.055Z,3.20
2022-09-05T23:58:35.331Z,3.33
